Ahoskie, NC

05:06 PM EST af December 07, 2016 (GMT -0500)
Tri County | | Change Station

Elev 69 ft 36.30 °N, 77.17 °W | Updated 21 minutes ago

Clear
klor
50 °f
Feels Like 50 °f
N
0
vint baytevdik vint from tsofn[ts]

haynt
High -- | Low -- °f
--% Chance of Precip.
Yesterday
High -- | Low -- °f
Precip. -- in
druk 30.06 in
zeevdikeyt 10.0 mayln
Clouds klor
toypunkt 44 °f
faykhtkeyt 78%
Rainfall 0.00 in
Snow Depth Not available.
7:06 AM 4:52 PM
First Quarter, 56% visible
METAR KASJ 072145Z AUTO 00000KT 10SM CLR 10/06 A3006 RMK AO2 T01010064
druk 30.06 in
zeevdikeyt 10.0 mayln
Clouds klor
toypunkt 44 °f
faykhtkeyt 78%
Rainfall 0.00 in
Snow Depth Not available.
7:06 AM 4:52 PM
First Quarter, 56% visible
METAR KASJ 072145Z AUTO 00000KT 10SM CLR 10/06 A3006 RMK AO2 T01010064

10-Day Weather Forecast

Almanac

Astronomy

Dec. 07, 2016 Rise Set
Actual Time
Civil Twilight
Nautical Twilight
Astronomical Twilight
Moon
Length Of Visible Light
Length of Day
Tomorrow will be .
, % of the Moon is Illuminated

Today's Extremes

State Highs State Lows

Community

WunderPhotos

Upload Photos

1,956,209 photos uploaded!

WunderBlog® & News

Nearby

Air Quality

  Air Quality AQ Index Pollutant
Not available.

Snow Depth

Station Depth Elevation

Earthquake Activity

City Distance Mag. Time & Date
Minimum magnitude displayed is 2.5.

Coastal Water Temperatures

plats temperatur

Stations

Nearby Weather Stations

Station Location Temp vintkelt toypunkt faykhtkeyt vint Precip. Elev dertsaytikt Type
                   

Watches & Warnings

There are currently no watches in effect.